Time;durP1;ratioP1;P1;durP2;ratioP2;P2;SDS_P1;SDS_P2;PMS_P1;PMS_P2;Temp;Humidity;BMP_temperature;BMP_pressure;BME280_temperature;BME280_humidity;BME280_pressure;Samples;Min_cycle;Max_cycle;Signal;HPM_P1;HPM_P2
2020/12/11 00:00:52;;;;;;;81.53;31.17;;;;;;;-0.86;84.87;99851.77;1755873;81;21139;-80
2020/12/11 00:03:18;;;;;;;75.05;30.25;;;;;;;-0.85;84.87;99852.97;1758512;80;21189;-81
2020/12/11 00:05:44;;;;;;;79.12;29.85;;;;;;;-0.91;84.88;99850.78;1758225;80;21276;-81
2020/12/11 00:08:11;;;;;;;78.83;30.72;;;;;;;-0.89;84.91;99852.83;1760449;80;21167;-81
2020/12/11 00:10:37;;;;;;;78.75;31.93;;;;;;;-0.91;84.89;99854.70;1763999;80;21216;-81
2020/12/11 00:13:04;;;;;;;87.72;36.53;;;;;;;-0.96;84.91;99859.45;1722290;82;21196;-81
2020/12/11 00:15:30;;;;;;;91.37;35.52;;;;;;;-0.93;84.92;99864.46;1717835;83;21225;-81
2020/12/11 00:17:57;;;;;;;81.22;31.10;;;;;;;-0.95;84.92;99858.98;1732513;81;22103;-80
2020/12/11 00:20:23;;;;;;;101.47;38.48;;;;;;;-1.00;84.93;99860.61;1736158;81;21139;-81
2020/12/11 00:22:49;;;;;;;94.00;35.80;;;;;;;-0.97;84.95;99859.08;1731504;81;21196;-81
2020/12/11 00:25:16;;;;;;;75.17;29.92;;;;;;;-0.98;84.88;99856.09;1735364;81;21279;-81
2020/12/11 00:27:42;;;;;;;191.32;63.20;;;;;;;-0.95;84.85;99857.17;1730503;81;21545;-80
2020/12/11 00:30:08;;;;;;;81.25;30.40;;;;;;;-0.94;84.87;99857.55;1735060;81;21210;-81
2020/12/11 00:32:36;;;;;;;84.70;31.00;;;;;;;-0.95;84.88;99855.87;1742320;81;21144;-81
2020/12/11 00:35:05;;;;;;;87.17;34.03;;;;;;;-1.00;84.89;99859.30;1738935;81;21565;-81
2020/12/11 00:37:32;;;;;;;80.42;32.42;;;;;;;-1.02;84.89;99857.25;1733616;81;21215;-81
2020/12/11 00:39:58;;;;;;;84.45;33.48;;;;;;;-1.02;84.93;99852.86;1740349;81;21160;-80
2020/12/11 00:42:24;;;;;;;85.87;34.08;;;;;;;-1.00;84.95;99854.08;1738608;81;21511;-80
2020/12/11 00:44:51;;;;;;;85.47;32.42;;;;;;;-1.02;84.96;99857.25;1741939;81;21140;-81
2020/12/11 00:47:17;;;;;;;89.60;34.18;;;;;;;-1.01;84.99;99861.55;1733247;81;21588;-81
2020/12/11 00:49:43;;;;;;;117.45;41.83;;;;;;;-1.03;84.99;99864.77;1727147;82;21073;-82
2020/12/11 00:52:09;;;;;;;97.10;36.38;;;;;;;-1.02;84.97;99865.94;1728651;82;21238;-81
2020/12/11 00:54:36;;;;;;;112.83;40.73;;;;;;;-0.98;84.98;99866.56;1732593;82;22186;-82
2020/12/11 00:57:02;;;;;;;87.30;31.35;;;;;;;-1.01;84.97;99866.78;1738306;81;21139;-81
2020/12/11 00:59:28;;;;;;;91.35;35.05;;;;;;;-1.02;84.98;99869.03;1709115;83;21160;-81
2020/12/11 01:01:55;;;;;;;90.90;35.43;;;;;;;-0.98;85.00;99863.94;1732034;82;21163;-81
2020/12/11 01:04:21;;;;;;;97.85;36.70;;;;;;;-0.98;84.99;99866.56;1749238;81;21557;-81
2020/12/11 01:06:47;;;;;;;92.25;35.43;;;;;;;-0.94;85.02;99871.94;1738999;81;21195;-81
2020/12/11 01:09:13;;;;;;;124.50;44.25;;;;;;;-0.94;85.01;99867.17;1733662;82;21117;-81
2020/12/11 01:11:40;;;;;;;210.35;71.75;;;;;;;-0.95;85.02;99867.64;1716514;82;21187;-81
2020/12/11 01:14:06;;;;;;;89.52;34.70;;;;;;;-0.93;85.02;99863.16;1739502;81;21162;-81
2020/12/11 01:16:32;;;;;;;91.92;32.67;;;;;;;-0.95;85.04;99862.41;1787836;80;21147;-81
2020/12/11 01:18:58;;;;;;;83.67;31.12;;;;;;;-1.01;85.07;99862.39;1788212;80;22084;-81
2020/12/11 01:21:25;;;;;;;86.63;33.92;;;;;;;-1.01;85.09;99858.93;1760768;81;21127;-81
2020/12/11 01:23:51;;;;;;;79.50;32.05;;;;;;;-1.01;85.08;99856.31;1709978;82;21139;-80
2020/12/11 01:26:17;;;;;;;92.12;34.53;;;;;;;-1.00;85.10;99852.77;1737751;82;21195;-81
2020/12/11 01:28:44;;;;;;;92.05;33.88;;;;;;;-0.98;85.09;99850.02;1781444;80;21652;-81
2020/12/11 01:31:10;;;;;;;79.72;33.08;;;;;;;-0.95;85.09;99844.09;1760574;80;21204;-81
2020/12/11 01:33:36;;;;;;;92.57;36.40;;;;;;;-0.92;85.08;99845.20;1765090;80;21215;-80
2020/12/11 01:36:03;;;;;;;85.70;34.15;;;;;;;-0.87;85.10;99849.61;1787719;80;21125;-81
2020/12/11 01:38:29;;;;;;;83.17;30.15;;;;;;;-0.83;85.13;99844.52;1771351;80;21179;-80
2020/12/11 01:40:55;;;;;;;83.72;32.45;;;;;;;-0.79;85.14;99832.89;1760784;81;21573;-81
2020/12/11 01:43:21;;;;;;;89.47;33.85;;;;;;;-0.72;85.12;99826.26;1760899;81;21236;-80
2020/12/11 01:45:48;;;;;;;90.97;35.65;;;;;;;-0.72;85.14;99826.26;1760785;81;21202;-81
2020/12/11 01:48:16;;;;;;;94.65;37.95;;;;;;;-0.77;85.14;99825.75;1739553;82;21472;-80
2020/12/11 01:50:42;;;;;;;89.30;33.58;;;;;;;-0.80;85.14;99823.36;1760826;81;21076;-80
2020/12/11 01:53:09;;;;;;;83.07;31.75;;;;;;;-0.76;85.14;99819.57;1760855;81;21155;-81
2020/12/11 01:55:38;;;;;;;119.82;44.00;;;;;;;-0.69;85.13;99822.09;1760944;81;21519;-81
2020/12/11 01:58:13;;;;;;;107.92;39.35;;;;;;;-0.61;85.12;99817.61;1760706;81;21132;-81
2020/12/11 02:00:41;;;;;;;80.47;33.50;;;;;;;-0.54;85.12;99810.50;1739366;81;21703;-81
2020/12/11 02:03:10;;;;;;;89.32;32.30;;;;;;;-0.48;85.13;99809.66;1777347;80;21567;-81
2020/12/11 02:05:37;;;;;;;79.75;30.95;;;;;;;-0.47;85.12;99804.80;1792101;80;21143;-81
2020/12/11 02:08:03;;;;;;;80.95;31.75;;;;;;;-0.49;85.14;99804.90;1792144;80;21253;-81
2020/12/11 02:10:30;;;;;;;80.67;30.77;;;;;;;-0.54;85.14;99806.58;1791957;80;21135;-81
2020/12/11 02:12:56;;;;;;;87.12;30.52;;;;;;;-0.61;85.14;99807.98;1790736;80;21203;-81
2020/12/11 02:15:22;;;;;;;85.15;33.02;;;;;;;-0.63;85.15;99804.63;1765099;80;21549;-81
2020/12/11 02:17:49;;;;;;;72.50;29.35;;;;;;;-0.63;85.13;99807.23;1765353;80;21163;-81
2020/12/11 02:20:15;;;;;;;70.25;27.32;;;;;;;-0.58;85.12;99812.98;1744278;80;21739;-81
2020/12/11 02:22:42;;;;;;;81.63;31.73;;;;;;;-0.54;85.08;99800.50;1738032;80;21132;-81
2020/12/11 02:25:08;;;;;;;82.82;33.10;;;;;;;-0.48;85.05;99799.19;1728700;83;21140;-81
2020/12/11 02:27:35;;;;;;;85.20;31.45;;;;;;;-0.43;85.03;99806.24;1728364;83;21116;-81
2020/12/11 02:30:04;;;;;;;82.25;31.90;;;;;;;-0.42;85.03;99803.48;1728301;83;21144;-81
2020/12/11 02:32:30;;;;;;;80.85;31.45;;;;;;;-0.39;85.02;99801.14;1733401;80;22104;-81
2020/12/11 02:34:56;;;;;;;78.12;33.65;;;;;;;-0.37;85.02;99802.69;1792178;80;21207;-81
2020/12/11 02:37:22;;;;;;;81.70;32.60;;;;;;;-0.41;85.03;99801.71;1788633;80;21131;-81
2020/12/11 02:39:49;;;;;;;87.57;34.08;;;;;;;-0.48;85.04;99802.65;1792082;80;21167;-81
2020/12/11 02:42:15;;;;;;;86.05;33.20;;;;;;;-0.49;85.02;99800.16;1792240;80;21084;-81
2020/12/11 02:44:41;;;;;;;83.30;30.88;;;;;;;-0.57;85.01;99803.34;1791769;80;22055;-81
2020/12/11 02:47:07;;;;;;;77.78;31.05;;;;;;;-0.65;84.99;99799.15;1792018;80;21175;-81
2020/12/11 02:49:34;;;;;;;71.70;29.92;;;;;;;-0.69;84.98;99792.00;1765616;80;21124;-81
2020/12/11 02:52:00;;;;;;;71.47;28.07;;;;;;;-0.72;84.98;99790.92;1728618;83;21180;-82
2020/12/11 02:54:27;;;;;;;74.75;27.95;;;;;;;-0.71;84.95;99792.59;1728330;83;21200;-81
2020/12/11 02:56:53;;;;;;;70.65;29.50;;;;;;;-0.77;84.95;99779.09;1728619;83;21113;-81
2020/12/11 02:59:19;;;;;;;72.42;30.25;;;;;;;-0.76;84.95;99776.38;1728562;83;21196;-82
2020/12/11 03:01:46;;;;;;;75.70;29.05;;;;;;;-0.77;84.92;99778.63;1728044;83;21140;-81
2020/12/11 03:04:12;;;;;;;77.55;31.48;;;;;;;-0.77;84.90;99774.70;1728546;83;21132;-81
2020/12/11 03:06:38;;;;;;;75.08;29.72;;;;;;;-0.77;84.90;99778.63;1728418;83;21156;-81
2020/12/11 03:09:05;;;;;;;74.05;30.50;;;;;;;-0.79;84.89;99776.61;1738540;80;21219;-81
2020/12/11 03:11:31;;;;;;;85.90;32.65;;;;;;;-0.76;84.91;99777.69;1747792;80;21577;-81
2020/12/11 03:13:57;;;;;;;75.95;31.97;;;;;;;-0.80;84.90;99768.86;1760216;81;21148;-81
2020/12/11 03:16:24;;;;;;;74.12;30.60;;;;;;;-0.84;84.87;99771.34;1760127;81;21111;-81
2020/12/11 03:18:51;;;;;;;68.75;26.75;;;;;;;-0.85;84.86;99773.16;1760150;81;21139;-81
2020/12/11 03:21:17;;;;;;;75.55;28.75;;;;;;;-0.85;84.88;99779.70;1760454;80;21196;-81
2020/12/11 03:23:44;;;;;;;68.95;27.48;;;;;;;-0.89;84.87;99773.02;1759993;81;21551;-81
2020/12/11 03:26:11;;;;;;;61.50;26.65;;;;;;;-0.87;84.87;99780.27;1760385;81;21572;-81
2020/12/11 03:28:37;;;;;;;72.30;30.37;;;;;;;-0.82;84.87;99775.54;1760054;81;21120;-81
2020/12/11 03:31:04;;;;;;;72.97;29.02;;;;;;;-0.85;84.82;99774.93;1760161;81;21131;-81
2020/12/11 03:33:30;;;;;;;86.85;30.85;;;;;;;-0.86;84.83;99776.70;1759875;81;21208;-81
2020/12/11 03:35:56;;;;;;;81.75;32.08;;;;;;;-0.86;84.82;99768.86;1760129;81;21214;-81
2020/12/11 03:38:22;;;;;;;76.97;30.50;;;;;;;-0.88;84.85;99781.20;1760327;80;21080;-81
2020/12/11 03:40:49;;;;;;;80.57;31.65;;;;;;;-0.90;84.84;99777.88;1746509;81;21155;-81
2020/12/11 03:43:16;;;;;;;71.75;27.40;;;;;;;-0.91;84.83;99778.81;1730105;83;21072;-81
2020/12/11 03:45:42;;;;;;;78.75;30.40;;;;;;;-0.92;84.81;99777.17;1729888;83;21264;-80
2020/12/11 03:48:09;;;;;;;89.58;32.03;;;;;;;-0.91;84.82;99770.96;1729810;81;21219;-80
2020/12/11 03:50:35;;;;;;;83.90;32.83;;;;;;;-0.90;84.82;99769.19;1729854;82;21209;-81
2020/12/11 03:53:02;;;;;;;80.60;28.60;;;;;;;-0.91;84.81;99768.34;1730099;83;21577;-81
2020/12/11 03:55:28;;;;;;;70.62;27.32;;;;;;;-0.91;84.81;99770.96;1729983;82;21190;-81
2020/12/11 03:57:55;;;;;;;70.42;28.05;;;;;;;-0.91;84.82;99768.34;1730316;81;21208;-81
2020/12/11 04:00:21;;;;;;;111.20;42.10;;;;;;;-0.85;84.82;99773.16;1758178;81;21167;-81
2020/12/11 04:02:47;;;;;;;125.50;44.40;;;;;;;-0.82;84.82;99767.69;1759944;81;21858;-80
2020/12/11 04:05:14;;;;;;;82.85;31.82;;;;;;;-0.84;84.80;99768.72;1760291;81;21211;-80
2020/12/11 04:07:40;;;;;;;83.55;31.10;;;;;;;-0.84;84.80;99769.56;1760311;81;21131;-80
2020/12/11 04:10:06;;;;;;;83.87;32.42;;;;;;;-0.80;84.83;99769.70;1760391;80;21271;-80
2020/12/11 04:12:32;;;;;;;79.50;31.90;;;;;;;-0.75;84.83;99766.28;1759876;80;21661;-81
2020/12/11 04:14:59;;;;;;;77.30;29.77;;;;;;;-0.77;84.82;99766.85;1750532;82;21128;-81
2020/12/11 04:17:25;;;;;;;82.45;33.55;;;;;;;-0.81;84.82;99765.41;1750792;82;21139;-82
2020/12/11 04:19:51;;;;;;;87.62;33.75;;;;;;;-0.80;84.82;99764.47;1750501;81;21142;-81
2020/12/11 04:22:18;;;;;;;86.85;32.42;;;;;;;-0.82;84.82;99763.76;1705194;84;22190;-81
2020/12/11 04:24:44;;;;;;;80.40;32.28;;;;;;;-0.84;84.80;99753.86;1719768;83;21140;-81
2020/12/11 04:27:11;;;;;;;76.30;30.92;;;;;;;-0.86;84.79;99755.77;1737684;82;21243;-82
2020/12/11 04:29:37;;;;;;;76.95;32.00;;;;;;;-0.88;84.79;99749.80;1749778;82;21135;-81
2020/12/11 04:32:03;;;;;;;82.85;32.42;;;;;;;-0.88;84.78;99751.61;1747322;81;21581;-81
2020/12/11 04:34:30;;;;;;;82.02;31.12;;;;;;;-0.89;84.80;99750.77;1675300;85;21613;-81
2020/12/11 04:36:57;;;;;;;87.45;34.08;;;;;;;-0.87;84.79;99746.24;1724285;83;21168;-81
2020/12/11 04:39:23;;;;;;;96.50;37.15;;;;;;;-0.84;84.79;99746.48;1724530;83;21096;-82
2020/12/11 04:41:51;;;;;;;102.07;41.83;;;;;;;-0.87;84.80;99748.86;1724332;83;21160;-81
2020/12/11 04:44:18;;;;;;;110.92;42.80;;;;;;;-0.89;84.80;99742.91;1733719;80;21236;-81
2020/12/11 04:46:44;;;;;;;97.00;41.92;;;;;;;-0.92;84.79;99745.77;1773680;80;21202;-81
2020/12/11 04:49:10;;;;;;;106.03;44.63;;;;;;;-0.93;84.79;99738.85;1773353;80;21168;-82
2020/12/11 04:51:36;;;;;;;122.58;48.05;;;;;;;-0.93;84.79;99740.63;1766786;80;21592;-81
2020/12/11 04:54:03;;;;;;;97.78;38.92;;;;;;;-0.92;84.81;99736.61;1760910;81;21155;-81
2020/12/11 04:56:31;;;;;;;116.03;48.13;;;;;;;-0.90;84.81;99734.70;1735152;81;21147;-81
2020/12/11 04:58:57;;;;;;;116.00;46.05;;;;;;;-0.91;84.81;99736.94;1760685;81;21263;-81
2020/12/11 05:01:28;;;;;;;99.80;38.67;;;;;;;-0.93;84.80;99731.00;1760809;81;21656;-82
2020/12/11 05:03:55;;;;;;;97.70;37.85;;;;;;;-0.92;84.81;99741.84;1760663;81;21136;-82
2020/12/11 05:06:22;;;;;;;247.27;135.25;;;;;;;-0.92;84.82;99741.84;1760701;81;21191;-82
2020/12/11 05:08:49;;;;;;;130.35;61.28;;;;;;;-0.94;84.80;99744.19;1760841;81;21131;-82
2020/12/11 05:11:27;;;;;;;97.60;40.78;;;;;;;-0.90;84.81;99743.02;1760812;81;21387;-81
2020/12/11 05:13:54;;;;;;;111.90;42.17;;;;;;;-0.86;84.82;99742.69;1757485;81;21154;-82
2020/12/11 05:16:21;;;;;;;96.80;41.20;;;;;;;-0.82;84.85;99740.67;1757145;81;21142;-80
2020/12/11 05:18:49;;;;;;;143.25;61.08;;;;;;;-0.81;84.83;99735.31;1757456;81;21202;-81
2020/12/11 05:21:20;;;;;;;151.32;67.87;;;;;;;-0.84;84.83;99735.53;1727440;81;21154;-81
2020/12/11 05:24:05;;;;;;;219.90;97.08;;;;;;;-0.88;84.85;99731.48;1757297;81;22104;-80
2020/12/11 05:26:36;;;;;;;130.05;50.92;;;;;;;-0.93;84.85;99731.00;1781098;80;21494;-81
2020/12/11 05:29:03;;;;;;;182.37;82.33;;;;;;;-0.99;84.84;99734.08;1748479;82;21572;-81
2020/12/11 05:31:29;;;;;;;180.32;69.80;;;;;;;-1.02;84.84;99731.66;1781216;80;21541;-81
2020/12/11 05:34:10;;;;;;;145.28;59.45;;;;;;;-1.04;84.83;99738.80;1748777;82;21204;-81
2020/12/11 05:36:47;;;;;;;168.97;70.65;;;;;;;-1.04;84.84;99736.19;1781077;80;21236;-81
2020/12/11 05:39:17;;;;;;;176.70;74.47;;;;;;;-1.05;84.82;99739.74;1748927;80;21582;-81
2020/12/11 05:41:44;;;;;;;160.65;68.25;;;;;;;-1.05;84.82;99733.20;1773956;80;21569;-81
2020/12/11 05:44:30;;;;;;;185.95;78.72;;;;;;;-1.02;84.83;99736.89;1756795;81;21139;-81
2020/12/11 05:46:57;;;;;;;229.43;91.00;;;;;;;-0.99;84.83;99736.70;1756633;81;21119;-80
2020/12/11 05:49:29;;;;;;;185.40;73.47;;;;;;;-0.99;84.83;99735.39;1756893;80;21213;-81
2020/12/11 05:52:07;;;;;;;137.55;55.88;;;;;;;-1.01;84.84;99734.18;1755601;81;21160;-81
2020/12/11 05:54:47;;;;;;;117.22;49.05;;;;;;;-0.97;84.84;99734.79;1811252;78;22839;-81
2020/12/11 05:57:16;;;;;;;112.17;50.28;;;;;;;-1.04;84.84;99733.58;1797345;79;21480;-81
2020/12/11 05:59:43;;;;;;;158.32;67.67;;;;;;;-1.05;84.84;99737.13;1797056;79;21199;-82
2020/12/11 06:02:11;;;;;;;153.00;70.50;;;;;;;-1.05;84.86;99731.89;1797228;79;21127;-81
2020/12/11 06:04:38;;;;;;;127.07;48.35;;;;;;;-1.06;84.86;99735.48;1797177;79;21005;-81
2020/12/11 06:07:11;;;;;;;111.75;45.92;;;;;;;-1.06;84.84;99741.55;1793373;79;21155;-82
2020/12/11 06:09:39;;;;;;;120.20;48.60;;;;;;;-1.04;84.86;99739.64;1759775;80;21127;-81
2020/12/11 06:12:07;;;;;;;139.32;58.38;;;;;;;-1.04;84.85;99737.03;1757426;81;21240;-81
2020/12/11 06:14:48;;;;;;;637.52;233.20;;;;;;;-1.03;84.90;99732.63;1757542;81;21184;-82
2020/12/11 06:17:14;;;;;;;513.50;202.18;;;;;;;-1.01;84.90;99727.64;1759194;80;21577;-82
2020/12/11 06:19:43;;;;;;;539.15;261.43;;;;;;;-0.96;84.91;99718.63;1766153;80;21597;-81
2020/12/11 06:22:14;;;;;;;557.90;225.97;;;;;;;-0.97;84.88;99719.09;1776770;80;21163;-81
2020/12/11 06:24:41;;;;;;;220.90;82.57;;;;;;;-0.95;84.89;99730.27;1766050;80;21193;-81
2020/12/11 06:27:08;;;;;;;286.57;101.58;;;;;;;-0.95;84.90;99726.84;1750007;80;21624;-81
2020/12/11 06:32:33;;;;;;;260.65;87.90;;;;;;;-0.94;84.90;99720.16;1823441;77;23610;-82
2020/12/11 06:35:12;;;;;;;219.18;75.25;;;;;;;-0.99;84.88;99724.08;1788371;78;21188;-82
2020/12/11 06:37:41;;;;;;;206.43;72.08;;;;;;;-0.97;84.90;99726.94;1790131;78;21234;-81
2020/12/11 06:40:08;;;;;;;226.05;75.42;;;;;;;-0.95;84.91;99719.80;1788225;80;21208;-81
2020/12/11 06:42:42;;;;;;;220.12;73.97;;;;;;;-0.94;84.91;99721.48;1746325;81;21598;-81
2020/12/11 06:45:24;;;;;;;244.30;86.20;;;;;;;-0.93;84.92;99720.53;1756374;81;21182;-81
2020/12/11 06:47:59;;;;;;;173.45;66.35;;;;;;;-0.91;84.93;99716.48;1755383;81;21464;-81
2020/12/11 06:50:30;;;;;;;213.97;79.32;;;;;;;-0.92;84.92;99712.22;1725754;80;21190;-81
2020/12/11 06:53:00;;;;;;;144.97;55.00;;;;;;;-0.92;84.93;99706.52;1697179;82;21204;-81
2020/12/11 06:55:51;;;;;;;341.68;117.15;;;;;;;-0.91;84.93;99705.54;1745306;82;21630;-82
2020/12/11 06:58:18;;;;;;;334.48;115.60;;;;;;;-0.91;84.95;99702.92;1732391;81;21206;-82
2020/12/11 07:00:52;;;;;;;147.10;55.30;;;;;;;-0.91;84.95;99709.94;1739922;82;21073;-82
2020/12/11 07:03:27;;;;;;;166.90;61.70;;;;;;;-0.92;84.95;99699.13;1753311;81;21271;-81
2020/12/11 07:06:03;;;;;;;129.50;48.75;;;;;;;-0.93;84.97;99696.98;1753963;81;21213;-81
2020/12/11 07:08:30;;;;;;;180.12;63.80;;;;;;;-0.95;84.96;99700.17;1730067;83;21564;-81
2020/12/11 07:11:08;;;;;;;140.57;52.05;;;;;;;-0.95;84.97;99708.02;1729994;83;21663;-81
2020/12/11 07:13:36;;;;;;;141.12;52.15;;;;;;;-0.93;84.96;99703.53;1730295;83;21152;-81
2020/12/11 07:16:03;;;;;;;163.90;64.50;;;;;;;-0.91;84.97;99707.31;1733672;81;21193;-82
2020/12/11 07:18:29;;;;;;;206.90;84.55;;;;;;;-0.91;84.97;99706.84;1766791;80;21140;-82
2020/12/11 07:20:57;;;;;;;134.20;53.08;;;;;;;-0.92;84.96;99707.82;1787944;80;21123;-81
2020/12/11 07:23:24;;;;;;;133.72;50.75;;;;;;;-0.93;84.96;99712.69;1787928;80;21131;-81
2020/12/11 07:25:51;;;;;;;146.53;55.60;;;;;;;-0.94;84.98;99713.63;1788033;80;21111;-81
2020/12/11 07:28:17;;;;;;;133.32;51.77;;;;;;;-0.94;84.99;99711.48;1788091;80;21262;-82
2020/12/11 07:30:45;;;;;;;122.05;48.28;;;;;;;-0.94;84.98;99707.08;1785647;80;21572;-81
2020/12/11 07:33:13;;;;;;;114.65;47.73;;;;;;;-0.94;84.98;99708.39;1788093;80;21123;-81
2020/12/11 07:35:49;;;;;;;173.87;59.05;;;;;;;-0.94;84.97;99712.31;1788222;80;21627;-81
2020/12/11 07:38:24;;;;;;;644.40;305.87;;;;;;;-0.94;84.97;99707.08;1787974;80;21151;-81
2020/12/11 07:40:54;;;;;;;678.98;302.57;;;;;;;-0.92;84.97;99711.75;1734544;80;22267;-81
2020/12/11 07:43:21;;;;;;;267.10;102.05;;;;;;;-0.90;84.97;99709.84;1787332;80;21151;-81
2020/12/11 07:45:47;;;;;;;277.27;95.92;;;;;;;-0.88;84.99;99698.77;1787390;80;21160;-81
2020/12/11 07:48:14;;;;;;;246.37;86.02;;;;;;;-0.88;84.98;99702.69;1787545;80;22290;-81
2020/12/11 07:50:40;;;;;;;234.57;79.07;;;;;;;-0.87;84.99;99714.00;1786941;80;21152;-81
2020/12/11 07:53:10;;;;;;;284.67;101.82;;;;;;;-0.87;84.99;99712.22;1780627;80;21290;-81
2020/12/11 07:55:36;;;;;;;149.02;47.45;;;;;;;-0.85;85.00;99706.41;1718545;82;21577;-81
2020/12/11 07:58:03;;;;;;;121.17;49.98;;;;;;;-0.80;85.00;99704.27;1747863;81;21839;-81
2020/12/11 08:00:35;;;;;;;164.77;62.45;;;;;;;-0.78;85.00;99701.08;1747930;81;21586;-81
2020/12/11 08:03:08;;;;;;;237.90;88.90;;;;;;;-0.74;84.98;99700.38;1736579;80;21127;-81
2020/12/11 08:05:37;;;;;;;157.62;60.70;;;;;;;-0.73;84.99;99696.78;1787515;80;21737;-81
2020/12/11 08:08:07;;;;;;;250.62;94.40;;;;;;;-0.71;85.00;99696.21;1787038;80;21155;-82
2020/12/11 08:10:54;;;;;;;205.45;79.32;;;;;;;-0.70;85.00;99696.08;1787478;80;21207;-80
2020/12/11 08:13:21;;;;;;;140.12;57.85;;;;;;;-0.67;85.00;99682.75;1787011;80;21131;-80
2020/12/11 08:15:48;;;;;;;139.62;57.58;;;;;;;-0.62;85.00;99685.03;1787512;80;21168;-80
2020/12/11 08:18:20;;;;;;;112.28;45.75;;;;;;;-0.60;85.00;99680.02;1787528;80;21541;-80
2020/12/11 08:20:55;;;;;;;125.20;52.95;;;;;;;-0.57;85.01;99682.44;1787495;80;21155;-80
2020/12/11 08:23:35;;;;;;;132.47;55.30;;;;;;;-0.56;85.00;99682.77;1787494;80;21223;-81
2020/12/11 08:26:09;;;;;;;189.95;62.93;;;;;;;-0.57;84.98;99683.74;1773078;80;21119;-80
2020/12/11 08:28:36;;;;;;;202.47;68.45;;;;;;;-0.56;84.97;99679.31;1779045;80;21166;-80
2020/12/11 08:31:23;;;;;;;130.78;48.87;;;;;;;-0.54;84.96;99678.27;1767402;80;21142;-80
2020/12/11 08:34:00;;;;;;;100.90;42.53;;;;;;;-0.52;84.94;99680.28;1752810;81;21199;-81
2020/12/11 08:36:28;;;;;;;116.95;47.98;;;;;;;-0.49;84.92;99677.09;1745918;80;21132;-83
2020/12/11 08:39:24;;;;;;;99.75;45.50;;;;;;;-0.46;84.92;99676.84;1750204;81;21148;-80
2020/12/11 08:53:11;;;;;;;138.25;56.88;;;;;;;-0.32;84.84;99660.91;1837995;77;22293;-80
2020/12/11 08:55:38;;;;;;;107.35;46.85;;;;;;;-0.31;84.82;99662.55;1739965;81;21577;-80
2020/12/11 08:58:05;;;;;;;115.65;55.00;;;;;;;-0.28;84.81;99662.33;1735118;81;21325;-80
2020/12/11 09:00:31;;;;;;;121.75;46.77;;;;;;;-0.29;84.78;99658.87;1732030;81;21179;-80
2020/12/11 09:02:57;;;;;;;117.65;45.55;;;;;;;-0.27;84.77;99654.34;1740374;81;21160;-80
2020/12/11 09:05:25;;;;;;;99.85;43.30;;;;;;;-0.23;84.76;99655.77;1745247;81;21152;-81
2020/12/11 09:07:52;;;;;;;105.43;43.42;;;;;;;-0.17;84.76;99657.06;1741975;81;21190;-79
2020/12/11 09:10:18;;;;;;;127.02;51.30;;;;;;;-0.16;84.74;99661.36;1734114;81;21175;-79
2020/12/11 09:12:47;;;;;;;108.35;47.60;;;;;;;-0.19;84.71;99651.13;1748686;81;21073;-78
2020/12/11 09:15:13;;;;;;;105.95;45.28;;;;;;;-0.19;84.69;99653.74;1735765;81;20989;-79
2020/12/11 09:17:40;;;;;;;133.30;50.85;;;;;;;-0.18;84.67;99651.48;1735529;82;21201;-79
2020/12/11 09:20:06;;;;;;;110.57;49.13;;;;;;;-0.22;84.66;99641.73;1738052;81;21168;-80
2020/12/11 09:22:32;;;;;;;197.25;67.45;;;;;;;-0.22;84.62;99643.51;1730816;81;21268;-79
2020/12/11 09:24:59;;;;;;;129.45;44.83;;;;;;;-0.21;84.59;99643.87;1737789;81;21569;-80
2020/12/11 09:27:25;;;;;;;111.68;43.50;;;;;;;-0.20;84.58;99634.56;1750926;82;21605;-80
2020/12/11 09:29:53;;;;;;;176.47;56.55;;;;;;;-0.19;84.55;99631.47;1747886;81;21140;-80
2020/12/11 09:32:34;;;;;;;152.05;60.65;;;;;;;-0.20;84.52;99625.87;1734756;81;21542;-80
2020/12/11 09:34:51;;;;;;;160.30;57.65;;;;;;;-0.17;84.52;99628.24;1750506;81;22311;-79
2020/12/11 09:37:17;;;;;;;128.68;50.17;;;;;;;-0.14;84.50;99628.03;1746151;81;21640;-80
2020/12/11 09:39:44;;;;;;;126.18;49.85;;;;;;;-0.12;84.46;99628.73;1739672;81;21176;-79
2020/12/11 09:42:28;;;;;;;136.00;54.05;;;;;;;-0.10;84.43;99626.80;1740234;81;21160;-79
2020/12/11 09:50:35;;;;;;;111.68;57.08;;;;;;;0.11;84.40;99601.50;1783288;77;28536;-80
2020/12/11 09:55:45;;;;;;;91.67;39.92;;;;;;;0.23;84.31;99594.45;1851216;77;22875;-80
2020/12/11 09:58:10;;;;;;;96.22;43.73;;;;;;;0.12;84.27;99603.17;1824531;78;20966;-80
2020/12/11 10:00:40;;;;;;;97.22;43.17;;;;;;;0.02;84.20;99610.12;1824218;78;21608;-80
2020/12/11 10:03:08;;;;;;;110.88;50.15;;;;;;;0.00;84.18;99609.42;1824219;78;21190;-80
2020/12/11 10:05:33;;;;;;;113.83;49.05;;;;;;;0.02;84.14;99611.91;1824336;78;21116;-80
2020/12/11 10:07:59;;;;;;;100.42;46.48;;;;;;;0.05;84.12;99604.63;1824584;78;21124;-80
2020/12/11 10:10:25;;;;;;;121.02;52.15;;;;;;;0.06;84.11;99602.38;1824587;78;21200;-80
2020/12/11 10:12:52;;;;;;;115.25;50.43;;;;;;;0.05;84.05;99602.00;1819082;78;21706;-80
2020/12/11 10:15:22;;;;;;;132.63;54.60;;;;;;;0.06;84.05;99595.81;1810667;78;21148;-80
2020/12/11 10:17:49;;;;;;;113.95;50.60;;;;;;;0.14;84.01;99599.14;1793084;78;21585;-80
2020/12/11 10:20:19;;;;;;;120.17;48.35;;;;;;;0.11;83.99;99593.64;1782428;78;21208;-80
2020/12/11 10:22:49;;;;;;;116.60;48.58;;;;;;;0.06;83.99;99598.44;1803265;78;21144;-80
2020/12/11 10:25:18;;;;;;;154.25;62.00;;;;;;;0.03;83.94;99592.14;1818248;78;26402;-80
2020/12/11 10:27:44;;;;;;;115.77;48.42;;;;;;;-0.04;83.95;99592.27;1822914;78;21120;-81
2020/12/11 10:30:11;;;;;;;178.85;75.70;;;;;;;-0.03;83.92;99591.30;1803992;78;21561;-81
2020/12/11 10:32:38;;;;;;;279.95;116.82;;;;;;;0.00;83.90;99583.22;1830068;77;21148;-79
2020/12/11 10:35:05;;;;;;;205.03;83.20;;;;;;;0.02;83.86;99585.22;1777933;80;21102;-80
2020/12/11 10:37:31;;;;;;;528.70;215.77;;;;;;;-0.05;83.85;99587.51;1782152;80;21217;-80
2020/12/11 10:39:58;;;;;;;271.98;104.92;;;;;;;-0.15;83.84;99581.81;1781926;80;21143;-80
2020/12/11 10:42:25;;;;;;;163.60;63.35;;;;;;;-0.25;83.78;99578.27;1756595;80;21148;-79
2020/12/11 10:44:51;;;;;;;272.98;94.47;;;;;;;-0.31;83.77;99571.70;1762867;78;21513;-79
2020/12/11 10:47:17;;;;;;;290.32;100.75;;;;;;;-0.35;83.75;99570.78;1773758;80;21123;-79
2020/12/11 10:49:48;;;;;;;151.05;59.88;;;;;;;-0.39;83.76;99571.50;1755603;81;21152;-79
2020/12/11 10:52:16;;;;;;;207.35;75.87;;;;;;;-0.35;83.74;99566.85;1779052;80;21147;-79
2020/12/11 10:54:42;;;;;;;194.55;74.70;;;;;;;-0.30;83.73;99560.75;1773273;80;21117;-80
2020/12/11 10:57:09;;;;;;;199.35;68.72;;;;;;;-0.37;83.72;99556.95;1765980;80;21135;-80
2020/12/11 10:59:35;;;;;;;175.57;69.20;;;;;;;-0.40;83.72;99554.59;1737187;81;21215;-80
2020/12/11 11:02:01;;;;;;;146.60;61.33;;;;;;;-0.40;83.70;99557.20;1773248;80;22190;-79
2020/12/11 11:04:28;;;;;;;162.47;64.60;;;;;;;-0.33;83.73;99554.45;1747751;81;21703;-79
2020/12/11 11:09:49;;;;;;;133.75;57.60;;;;;;;-0.19;83.71;99547.64;1810716;78;22849;-77
2020/12/11 11:12:29;;;;;;;128.60;51.58;;;;;;;-0.21;83.72;99541.20;1796492;79;20981;-77
2020/12/11 11:15:21;;;;;;;112.60;47.88;;;;;;;-0.19;83.75;99539.30;1796872;79;22000;-77
2020/12/11 11:22:57;;;;;;;115.12;48.87;;;;;;;-0.27;83.72;99543.48;1795122;80;21159;-77
2020/12/11 11:28:01;;;;;;;138.57;55.92;;;;;;;-0.18;83.74;99534.43;1815975;77;22800;-77
2020/12/11 11:30:28;;;;;;;123.50;53.00;;;;;;;-0.17;83.74;99531.30;1788298;80;21588;-77
2020/12/11 11:32:55;;;;;;;138.95;57.95;;;;;;;-0.08;83.73;99536.66;1788256;80;21548;-77
2020/12/11 11:35:22;;;;;;;114.88;47.62;;;;;;;-0.05;83.72;99526.40;1788175;80;21107;-77
2020/12/11 11:37:48;;;;;;;131.30;56.23;;;;;;;-0.02;83.72;99523.52;1788347;80;21139;-77
2020/12/11 11:40:14;;;;;;;121.97;52.33;;;;;;;-0.04;83.73;99520.21;1788294;80;21107;-77
2020/12/11 11:42:41;;;;;;;126.65;53.70;;;;;;;-0.01;83.74;99519.95;1788183;79;21561;-77
2020/12/11 11:45:09;;;;;;;154.30;60.33;;;;;;;-0.02;83.73;99509.95;1787966;80;21203;-76
2020/12/11 11:47:39;;;;;;;109.67;46.40;;;;;;;0.04;83.75;99505.98;1788205;80;21616;-76
2020/12/11 11:53:04;;;;;;;98.25;43.85;;;;;;;0.07;83.71;99497.86;1788324;80;21411;-77